Itacuruba, Brazil
Current Conditions -  °F | °C
As of 9:00 AM on Friday 28 Nov 2014 (Local Time) from SBJU Reporting Station
Few Clouds Few Clouds  
Wind Chill: 86°   Ceiling: Unl
Heat Index: 88°   Visibility: 6mi
Dew Point: 66°   Wind: 8mph
Humidity: 51%   Direction: 150°SSE
Pressure: 30.03"   Gusts: NA
Location:  8.81°S, 38.57°W
Report Text: SBJU 281200Z 15007KT 9999 FEW020 30/19 Q1017
Loading
Personal Weather Stations






























Interactive Weather Map New forecast layout! Learn more

10-Day Weather Forecast

Advertisements
Track Severe Weather on mobile